createdAt,value
2023-03-11T00:00:41.506Z,97773.95
2023-03-11T00:03:24.963Z,97772.95
2023-03-11T00:05:54.357Z,97773.80
2023-03-11T00:08:24.584Z,97776.13
2023-03-11T00:10:55.627Z,97778.72
2023-03-11T00:13:24.017Z,97776.48
2023-03-11T00:15:56.065Z,97780.73
2023-03-11T00:18:27.212Z,97782.61
2023-03-11T00:20:56.719Z,97782.10
2023-03-11T00:23:26.113Z,97779.26
2023-03-11T00:25:54.597Z,97779.57
2023-03-11T00:28:25.519Z,97787.05
2023-03-11T00:30:53.858Z,97788.59
2023-03-11T00:33:22.178Z,97784.66
2023-03-11T00:35:50.991Z,97788.48
2023-03-11T00:38:21.880Z,97790.23
2023-03-11T00:40:50.378Z,97790.34
2023-03-11T00:43:18.557Z,97785.83
2023-03-11T00:45:47.293Z,97788.29
2023-03-11T00:48:16.431Z,97788.42
2023-03-11T00:50:45.128Z,97790.20
2023-03-11T00:53:13.321Z,97789.40
2023-03-11T00:55:42.083Z,97794.95
2023-03-11T00:58:13.746Z,97789.90
2023-03-11T01:00:47.836Z,97786.75
2023-03-11T01:03:16.008Z,97790.55
2023-03-11T01:05:47.057Z,97797.64
2023-03-11T01:08:15.320Z,97794.50
2023-03-11T01:10:43.902Z,97792.03
2023-03-11T01:13:13.817Z,97795.35
2023-03-11T01:15:42.020Z,97794.80
2023-03-11T01:18:10.264Z,97797.59
2023-03-11T01:20:38.954Z,97797.14
2023-03-11T01:23:07.532Z,97801.00
2023-03-11T01:25:36.369Z,97797.89
2023-03-11T01:28:05.408Z,97803.13
2023-03-11T01:30:33.683Z,97796.25
2023-03-11T01:33:02.572Z,97800.77
2023-03-11T01:35:32.323Z,97798.73
2023-03-11T01:38:00.554Z,97799.79
2023-03-11T01:40:39.180Z,97803.18
2023-03-11T01:43:37.430Z,97797.04
2023-03-11T01:46:16.358Z,97796.20
2023-03-11T01:48:51.610Z,97797.04
2023-03-11T01:51:34.223Z,97798.55
2023-03-11T01:54:10.769Z,97798.02
2023-03-11T01:56:40.188Z,97796.70
2023-03-11T01:59:09.904Z,97797.05
2023-03-11T02:01:44.359Z,97800.66
2023-03-11T02:04:13.308Z,97795.99
2023-03-11T02:06:41.790Z,97798.42
2023-03-11T02:09:10.473Z,97797.05
2023-03-11T02:11:38.950Z,97797.69
2023-03-11T02:14:09.636Z,97799.91
2023-03-11T02:16:37.756Z,97802.59
2023-03-11T02:19:17.092Z,97800.46
2023-03-11T02:21:45.468Z,97799.45
2023-03-11T02:24:38.222Z,97805.20
2023-03-11T02:27:08.953Z,97803.70
2023-03-11T02:29:37.020Z,97806.04
2023-03-11T02:32:08.928Z,97802.53
2023-03-11T02:34:40.098Z,97810.90
2023-03-11T02:37:11.454Z,97806.64
2023-03-11T02:39:43.023Z,97815.52
2023-03-11T02:42:26.350Z,97814.66
2023-03-11T02:45:00.573Z,97814.88
2023-03-11T02:47:29.767Z,97824.25
2023-03-11T02:49:58.237Z,97827.85
2023-03-11T02:52:28.742Z,97839.39
2023-03-11T02:54:56.831Z,97846.23
2023-03-11T02:57:25.106Z,97848.46
2023-03-11T02:59:53.586Z,97852.84
2023-03-11T03:02:21.932Z,97856.13
2023-03-11T03:04:50.746Z,97866.95
2023-03-11T03:07:19.019Z,97869.93
2023-03-11T03:09:47.197Z,97880.29
2023-03-11T03:12:15.366Z,97893.00
2023-03-11T03:14:43.643Z,97901.14
2023-03-11T03:17:12.089Z,97907.71
2023-03-11T03:19:40.700Z,97911.33
2023-03-11T03:22:08.874Z,97912.38
2023-03-11T03:24:37.152Z,97914.16
2023-03-11T03:27:05.842Z,97919.68
2023-03-11T03:29:34.432Z,97925.58
2023-03-11T03:32:02.690Z,97927.89
2023-03-11T03:34:30.965Z,97926.38
2023-03-11T03:36:59.137Z,97926.64
2023-03-11T03:39:30.006Z,97928.79
2023-03-11T03:41:58.759Z,97930.40
2023-03-11T03:44:30.923Z,97930.35
2023-03-11T03:47:00.242Z,97935.59
2023-03-11T03:49:28.600Z,97941.19
2023-03-11T03:51:57.282Z,97946.10
2023-03-11T03:54:30.479Z,97952.98
2023-03-11T03:56:59.057Z,97948.92
2023-03-11T03:59:27.239Z,97953.46
2023-03-11T04:01:58.191Z,97955.09
2023-03-11T04:04:26.956Z,97957.26
2023-03-11T04:06:55.629Z,97964.18
2023-03-11T04:09:23.915Z,97961.31
2023-03-11T04:11:52.190Z,97967.74
2023-03-11T04:14:21.079Z,97966.48
2023-03-11T04:16:54.750Z,97971.42
2023-03-11T04:19:23.155Z,97973.58
2023-03-11T04:21:52.150Z,97973.61
2023-03-11T04:24:21.147Z,97977.48
2023-03-11T04:26:49.643Z,97977.98
2023-03-11T04:29:18.308Z,97976.93
2023-03-11T04:31:49.887Z,97984.48
2023-03-11T04:34:18.844Z,97980.46
2023-03-11T04:36:47.022Z,97985.75
2023-03-11T04:39:16.418Z,97986.56
2023-03-11T04:41:45.507Z,97988.44
2023-03-11T04:44:17.266Z,97991.17
2023-03-11T04:46:46.051Z,97986.38
2023-03-11T04:49:14.325Z,97996.30
2023-03-11T04:51:43.117Z,98002.53
2023-03-11T04:54:12.213Z,98007.09
2023-03-11T04:56:40.584Z,98003.79
2023-03-11T04:59:09.682Z,98013.47
2023-03-11T05:01:38.905Z,98014.57
2023-03-11T05:04:08.833Z,98018.30
2023-03-11T05:06:37.368Z,98020.23
2023-03-11T05:09:06.869Z,98030.36
2023-03-11T05:11:37.294Z,98035.55
2023-03-11T05:14:05.572Z,98039.16
2023-03-11T05:16:34.157Z,98046.02
2023-03-11T05:19:22.599Z,98050.25
2023-03-11T05:21:51.383Z,98053.77
2023-03-11T05:24:19.865Z,98066.04
2023-03-11T05:26:48.638Z,98066.70
2023-03-11T05:29:17.856Z,98079.30
2023-03-11T05:31:47.156Z,98085.27
2023-03-11T05:34:16.137Z,98086.97
2023-03-11T05:36:44.727Z,98093.67
2023-03-11T05:39:13.612Z,98108.41
2023-03-11T05:41:43.837Z,98104.08
2023-03-11T05:44:12.313Z,98121.52
2023-03-11T05:46:41.116Z,98126.80
2023-03-11T05:49:09.479Z,98135.18
2023-03-11T05:51:38.375Z,98145.79
2023-03-11T05:54:15.173Z,98153.61
2023-03-11T05:56:46.793Z,98161.61
2023-03-11T05:59:16.721Z,98172.66
2023-03-11T06:01:46.522Z,98184.04
2023-03-11T06:04:15.199Z,98187.50
2023-03-11T06:06:44.103Z,98192.50
2023-03-11T06:09:15.947Z,98201.45
2023-03-11T06:11:45.038Z,98208.63
2023-03-11T06:14:14.756Z,98217.38
2023-03-11T06:16:44.044Z,98224.33
2023-03-11T06:19:13.041Z,98233.11
2023-03-11T06:21:44.274Z,98249.19
2023-03-11T06:24:12.658Z,98249.36
2023-03-11T06:26:40.939Z,98262.63
2023-03-11T06:29:13.904Z,98270.20
2023-03-11T06:31:42.854Z,98279.15
2023-03-11T06:34:12.723Z,98292.37
2023-03-11T06:36:40.911Z,98306.08
2023-03-11T06:39:11.110Z,98308.27
2023-03-11T06:41:39.283Z,98319.06
2023-03-11T06:44:09.072Z,98329.64
2023-03-11T06:46:38.294Z,98341.11
2023-03-11T06:49:06.668Z,98353.02
2023-03-11T06:51:35.253Z,98360.55
2023-03-11T06:54:04.138Z,98369.52
2023-03-11T06:56:33.746Z,98377.67
2023-03-11T06:59:05.897Z,98394.98
2023-03-11T07:01:35.469Z,98408.02
2023-03-11T07:04:05.505Z,98422.95
2023-03-11T07:06:33.909Z,98430.33
2023-03-11T07:09:09.153Z,98440.40
2023-03-11T07:11:40.087Z,98457.92
2023-03-11T07:14:11.333Z,98461.52
2023-03-11T07:16:42.829Z,98469.06
2023-03-11T07:19:17.804Z,98477.77
2023-03-11T07:21:46.099Z,98484.40
2023-03-11T07:24:15.229Z,98494.33
2023-03-11T07:26:44.570Z,98507.20
2023-03-11T07:29:12.964Z,98517.37
2023-03-11T07:31:41.579Z,98517.64
2023-03-11T07:34:12.516Z,98532.56
2023-03-11T07:36:42.505Z,98549.51
2023-03-11T07:39:14.941Z,98554.10
2023-03-11T07:41:43.854Z,98568.13
2023-03-11T07:44:13.256Z,98576.83
2023-03-11T07:46:42.166Z,98588.30
2023-03-11T07:49:10.438Z,98598.75
2023-03-11T07:51:41.151Z,98606.16
2023-03-11T07:54:10.235Z,98610.47
2023-03-11T07:56:38.626Z,98617.06
2023-03-11T07:59:07.097Z,98627.57
2023-03-11T08:01:40.797Z,98644.55
2023-03-11T08:04:13.717Z,98647.64
2023-03-11T08:06:45.928Z,98662.04
2023-03-11T08:09:14.225Z,98668.87
2023-03-11T08:11:42.914Z,98678.42
2023-03-11T08:14:11.192Z,98690.42
2023-03-11T08:16:41.271Z,98702.71
2023-03-11T08:19:12.467Z,98715.23
2023-03-11T08:21:40.747Z,98710.83
2023-03-11T08:24:11.474Z,98725.09
2023-03-11T08:26:40.239Z,98739.50
2023-03-11T08:29:08.498Z,98742.21
2023-03-11T08:31:36.996Z,98754.88
2023-03-11T08:34:08.341Z,98762.25
2023-03-11T08:36:36.923Z,98779.25
2023-03-11T08:39:05.168Z,98783.23
2023-03-11T08:41:33.904Z,98799.91
2023-03-11T08:44:02.067Z,98809.86
2023-03-11T08:46:35.912Z,98811.89
2023-03-11T08:49:05.981Z,98814.71
2023-03-11T08:51:35.117Z,98821.31
2023-03-11T08:54:03.961Z,98832.49
2023-03-11T08:56:32.210Z,98842.69
2023-03-11T08:59:00.528Z,98849.94
2023-03-11T09:01:29.806Z,98856.51
2023-03-11T09:03:58.297Z,98866.53
2023-03-11T09:06:26.666Z,98878.90
2023-03-11T09:08:54.729Z,98887.48
2023-03-11T09:11:23.023Z,98893.97
2023-03-11T09:13:51.494Z,98903.59
2023-03-11T09:16:22.119Z,98908.91
2023-03-11T09:18:50.811Z,98916.05
2023-03-11T09:21:19.482Z,98919.79
2023-03-11T09:23:47.996Z,98928.66
2023-03-11T09:26:16.244Z,98933.89
2023-03-11T09:28:49.374Z,98937.99
2023-03-11T09:31:18.585Z,98948.27
2023-03-11T09:33:47.343Z,98953.37
2023-03-11T09:36:17.630Z,98963.73
2023-03-11T09:38:46.623Z,98968.99
2023-03-11T09:41:17.732Z,98973.52
2023-03-11T09:44:21.689Z,98975.56
2023-03-11T09:47:22.014Z,98981.45
2023-03-11T09:49:59.188Z,98989.80
2023-03-11T09:52:47.327Z,98995.20
2023-03-11T09:55:42.787Z,99004.16
2023-03-11T09:58:18.383Z,99003.00
2023-03-11T10:00:47.270Z,99013.02
2023-03-11T10:03:26.582Z,99020.95
2023-03-11T10:06:00.303Z,99038.03
2023-03-11T10:08:33.698Z,99037.29
2023-03-11T10:11:14.261Z,99046.73
2023-03-11T10:13:57.177Z,99056.74
2023-03-11T10:16:35.459Z,99061.23
2023-03-11T10:19:21.583Z,99066.17
2023-03-11T10:22:13.722Z,99071.31
2023-03-11T10:25:17.543Z,99075.31
2023-03-11T10:27:59.292Z,99084.63
2023-03-11T10:30:46.225Z,99097.17
2023-03-11T10:33:20.611Z,99099.71
2023-03-11T10:35:52.632Z,99108.20
2023-03-11T10:38:27.534Z,99113.70
2023-03-11T10:40:57.232Z,99114.92
2023-03-11T10:43:32.483Z,99120.31
2023-03-11T10:46:01.305Z,99129.19
2023-03-11T10:48:29.746Z,99130.56
2023-03-11T10:51:27.029Z,99130.33
2023-03-11T10:53:59.397Z,99139.48
2023-03-11T10:56:34.712Z,99144.29
2023-03-11T10:59:04.636Z,99145.58
2023-03-11T11:01:32.849Z,99148.48
2023-03-11T11:04:02.459Z,99143.81
2023-03-11T11:06:37.861Z,99152.85
2023-03-11T11:09:07.145Z,99150.64
2023-03-11T11:11:39.733Z,99149.39
2023-03-11T11:14:09.630Z,99154.42
2023-03-11T11:16:38.078Z,99153.20
2023-03-11T11:19:11.462Z,99164.23
2023-03-11T11:21:41.128Z,99161.73
2023-03-11T11:24:22.068Z,99169.14
2023-03-11T11:27:12.083Z,99176.35
2023-03-11T11:29:40.244Z,99180.59
2023-03-11T11:32:40.966Z,99178.15
2023-03-11T11:35:14.807Z,99183.67
2023-03-11T11:37:46.648Z,99184.53
2023-03-11T11:40:14.931Z,99188.13
2023-03-11T11:42:47.168Z,99189.38
2023-03-11T11:45:23.343Z,99189.30
2023-03-11T11:47:54.688Z,99190.83
2023-03-11T11:50:34.022Z,99194.63
2023-03-11T11:53:10.015Z,99217.73
2023-03-11T11:55:43.589Z,99215.20
2023-03-11T11:58:12.847Z,99232.30
2023-03-11T12:00:47.069Z,99237.44
2023-03-11T12:03:39.187Z,99245.30
2023-03-11T12:06:30.329Z,99250.16
2023-03-11T12:09:06.280Z,99256.20
2023-03-11T12:11:57.307Z,99260.81
2023-03-11T12:14:40.209Z,99266.98
2023-03-11T12:17:09.302Z,99264.25
2023-03-11T12:20:01.389Z,99270.23
2023-03-11T12:22:40.170Z,99266.42
2023-03-11T12:25:23.791Z,99271.40
2023-03-11T12:28:00.358Z,99272.88
2023-03-11T12:30:31.606Z,99275.06
2023-03-11T12:33:03.973Z,99290.10
2023-03-11T12:35:34.129Z,99290.68
2023-03-11T12:38:22.746Z,99294.91
2023-03-11T12:41:05.259Z,99301.65
2023-03-11T12:43:36.347Z,99310.52
2023-03-11T12:46:06.010Z,99314.91
2023-03-11T12:48:34.176Z,99314.93
2023-03-11T12:51:03.973Z,99321.42
2023-03-11T12:53:48.746Z,99326.04
2023-03-11T12:56:43.132Z,99334.29
2023-03-11T12:59:42.434Z,99338.73
2023-03-11T13:02:10.504Z,99344.86
2023-03-11T13:05:16.472Z,99347.77
2023-03-11T13:07:53.136Z,99357.53
2023-03-11T13:10:36.597Z,99361.08
2023-03-11T13:13:33.001Z,99372.69
2023-03-11T13:16:21.423Z,99371.41
2023-03-11T13:18:52.388Z,99377.66
2023-03-11T13:21:32.455Z,99377.19
2023-03-11T13:24:18.850Z,99381.20
2023-03-11T13:26:53.436Z,99389.02
2023-03-11T13:29:54.400Z,99388.70
2023-03-11T13:32:53.639Z,99401.88
2023-03-11T13:35:49.350Z,99404.00
2023-03-11T13:38:26.605Z,99412.05
2023-03-11T13:40:54.982Z,99410.61
2023-03-11T13:43:25.204Z,99421.40
2023-03-11T13:46:01.017Z,99425.42
2023-03-11T13:48:30.885Z,99438.20
2023-03-11T13:51:08.459Z,99438.77
2023-03-11T13:53:44.080Z,99448.58
2023-03-11T13:56:22.722Z,99448.41
2023-03-11T13:58:50.897Z,99454.05
2023-03-11T14:01:19.510Z,99457.65
2023-03-11T14:03:48.305Z,99459.36
2023-03-11T14:06:19.790Z,99463.91
2023-03-11T14:08:56.500Z,99463.39
2023-03-11T14:11:29.527Z,99464.00
2023-03-11T14:13:57.963Z,99469.66
2023-03-11T14:16:35.247Z,99470.84
2023-03-11T14:19:05.247Z,99475.02
2023-03-11T14:21:33.834Z,99475.33
2023-03-11T14:24:03.128Z,99477.73
2023-03-11T14:26:35.295Z,99486.95
2023-03-11T14:29:12.475Z,99488.44
2023-03-11T14:31:44.293Z,99492.95
2023-03-11T14:34:16.906Z,99492.02
2023-03-11T14:36:48.744Z,99494.45
2023-03-11T14:39:33.245Z,99501.87
2023-03-11T14:42:23.105Z,99506.70
2023-03-11T14:45:05.275Z,99510.48
2023-03-11T14:47:45.568Z,99514.12
2023-03-11T14:50:18.045Z,99518.71
2023-03-11T14:52:52.100Z,99522.95
2023-03-11T14:55:28.729Z,99527.84
2023-03-11T14:58:05.428Z,99533.17
2023-03-11T15:00:41.233Z,99535.37
2023-03-11T15:03:13.095Z,99540.77
2023-03-11T15:05:58.875Z,99543.46
2023-03-11T15:08:29.912Z,99547.05
2023-03-11T15:11:07.198Z,99550.42
2023-03-11T15:13:36.403Z,99554.71
2023-03-11T15:16:07.233Z,99566.23
2023-03-11T15:18:38.017Z,99560.13
2023-03-11T15:21:20.373Z,99563.03
2023-03-11T15:23:51.410Z,99563.63
2023-03-11T15:26:29.056Z,99567.25
2023-03-11T15:29:01.861Z,99566.08
2023-03-11T15:31:33.451Z,99567.45
2023-03-11T15:34:18.715Z,99572.06
2023-03-11T15:36:49.856Z,99574.25
2023-03-11T15:39:20.365Z,99577.48
2023-03-11T15:42:08.229Z,99579.48
2023-03-11T15:45:14.050Z,99582.62
2023-03-11T15:47:42.652Z,99585.27
2023-03-11T15:50:24.486Z,99590.33
2023-03-11T15:52:55.485Z,99590.07
2023-03-11T15:55:25.781Z,99593.08
2023-03-11T15:58:01.553Z,99595.39
2023-03-11T16:00:29.825Z,99598.05
2023-03-11T16:02:58.213Z,99609.14
2023-03-11T16:05:26.313Z,99610.39
2023-03-11T16:07:54.679Z,99613.17
2023-03-11T16:10:28.933Z,99616.67
2023-03-11T16:12:57.034Z,99620.66
2023-03-11T16:15:29.155Z,99620.88
2023-03-11T16:17:59.837Z,99627.63
2023-03-11T16:20:37.940Z,99632.33
2023-03-11T16:23:08.160Z,99636.81
2023-03-11T16:25:40.017Z,99637.21
2023-03-11T16:28:11.763Z,99650.17
2023-03-11T16:30:40.080Z,99660.21
2023-03-11T16:33:08.320Z,99665.75
2023-03-11T16:35:36.511Z,99664.24
2023-03-11T16:38:04.780Z,99671.15
2023-03-11T16:40:33.145Z,99673.62
2023-03-11T16:43:13.686Z,99676.92
2023-03-11T16:45:41.881Z,99688.33
2023-03-11T16:48:10.062Z,99689.04
2023-03-11T16:50:38.263Z,99694.20
2023-03-11T16:53:06.393Z,99699.71
2023-03-11T16:55:34.576Z,99704.89
2023-03-11T16:58:02.844Z,99714.75
2023-03-11T17:00:31.059Z,99718.58
2023-03-11T17:02:59.393Z,99728.25
2023-03-11T17:05:27.569Z,99735.69
2023-03-11T17:08:01.005Z,99743.31
2023-03-11T17:10:29.625Z,99749.57
2023-03-11T17:12:57.922Z,99751.00
2023-03-11T17:15:26.094Z,99751.56
2023-03-11T17:17:54.266Z,99756.41
2023-03-11T17:20:22.561Z,99762.64
2023-03-11T17:22:50.817Z,99769.20
2023-03-11T17:25:19.411Z,99771.30
2023-03-11T17:27:47.894Z,99774.95
2023-03-11T17:30:27.121Z,99779.97
2023-03-11T17:32:58.805Z,99788.09
2023-03-11T17:35:27.147Z,99790.70
2023-03-11T17:37:55.217Z,99796.05
2023-03-11T17:40:23.386Z,99795.54
2023-03-11T17:42:51.701Z,99796.23
2023-03-11T17:45:19.826Z,99802.27
2023-03-11T17:47:48.113Z,99806.74
2023-03-11T17:50:16.384Z,99810.70
2023-03-11T17:52:46.818Z,99810.38
2023-03-11T17:55:14.993Z,99815.21
2023-03-11T17:57:45.886Z,99816.59
2023-03-11T18:00:15.161Z,99826.92
2023-03-11T18:02:43.480Z,99830.89
2023-03-11T18:05:12.063Z,99836.05
2023-03-11T18:07:40.444Z,99837.59
2023-03-11T18:10:10.450Z,99841.03
2023-03-11T18:12:38.932Z,99841.73
2023-03-11T18:15:12.065Z,99846.04
2023-03-11T18:17:40.909Z,99847.95
2023-03-11T18:20:09.824Z,99856.36
2023-03-11T18:22:40.115Z,99856.55
2023-03-11T18:25:10.848Z,99860.17
2023-03-11T18:27:39.227Z,99861.73
2023-03-11T18:30:08.865Z,99862.58
2023-03-11T18:32:37.681Z,99870.48
2023-03-11T18:35:06.718Z,99872.38
2023-03-11T18:37:34.896Z,99873.92
2023-03-11T18:40:03.774Z,99874.27
2023-03-11T18:42:32.463Z,99877.39
2023-03-11T18:45:00.638Z,99878.60
2023-03-11T18:47:29.010Z,99879.11
2023-03-11T18:49:57.085Z,99891.47
2023-03-11T18:52:25.559Z,99890.10
2023-03-11T18:54:53.730Z,99893.53
2023-03-11T18:57:22.008Z,99898.85
2023-03-11T18:59:52.038Z,99900.06
2023-03-11T19:02:21.119Z,99905.57
2023-03-11T19:04:49.462Z,99907.46
2023-03-11T19:07:18.051Z,99913.13
2023-03-11T19:09:49.122Z,99913.48
2023-03-11T19:12:17.293Z,99918.98
2023-03-11T19:14:45.667Z,99917.27
2023-03-11T19:17:16.603Z,99915.04
2023-03-11T19:19:44.888Z,99919.66
2023-03-11T19:22:12.951Z,99921.38
2023-03-11T19:24:41.225Z,99920.54
2023-03-11T19:27:09.401Z,99929.81
2023-03-11T19:29:37.573Z,99927.06
2023-03-11T19:32:06.259Z,99930.14
2023-03-11T19:34:34.840Z,99932.20
2023-03-11T19:37:03.117Z,99932.73
2023-03-11T19:39:31.285Z,99939.59
2023-03-11T19:41:59.560Z,99943.20
2023-03-11T19:44:27.723Z,99938.91
2023-03-11T19:46:55.808Z,99940.95
2023-03-11T19:49:23.969Z,99946.98
2023-03-11T19:51:53.266Z,99944.91
2023-03-11T19:54:22.245Z,99943.54
2023-03-11T19:56:50.446Z,99945.42
2023-03-11T19:59:18.641Z,99946.11
2023-03-11T20:01:46.780Z,99946.11
2023-03-11T20:04:15.616Z,99949.20
2023-03-11T20:06:44.809Z,99952.10
2023-03-11T20:09:13.572Z,99954.17
2023-03-11T20:11:42.338Z,99953.81
2023-03-11T20:14:10.924Z,99957.27
2023-03-11T20:16:40.164Z,99956.05
2023-03-11T20:19:08.424Z,99954.52
2023-03-11T20:21:40.918Z,99959.33
2023-03-11T20:24:10.188Z,99964.81
2023-03-11T20:26:38.660Z,99966.69
2023-03-11T20:29:07.380Z,99969.10
2023-03-11T20:31:36.727Z,99968.59
2023-03-11T20:34:05.547Z,99967.55
2023-03-11T20:36:34.111Z,99974.92
2023-03-11T20:39:04.362Z,99977.67
2023-03-11T20:41:38.767Z,99978.17
2023-03-11T20:44:09.083Z,99974.41
2023-03-11T20:46:37.490Z,99972.35
2023-03-11T20:49:05.921Z,99974.05
2023-03-11T20:51:34.289Z,99972.33
2023-03-11T20:54:02.630Z,99969.42
2023-03-11T20:56:31.073Z,99964.78
2023-03-11T20:59:01.131Z,99967.00
2023-03-11T21:01:31.448Z,99963.23
2023-03-11T21:04:02.582Z,99967.02
2023-03-11T21:06:36.118Z,99969.42
2023-03-11T21:09:08.359Z,99970.09
2023-03-11T21:11:36.910Z,99967.52
2023-03-11T21:14:05.769Z,99970.77
2023-03-11T21:16:35.150Z,99968.02
2023-03-11T21:19:05.664Z,99974.55
2023-03-11T21:21:34.233Z,99974.90
2023-03-11T21:24:02.712Z,99973.34
2023-03-11T21:26:31.649Z,99971.80
2023-03-11T21:28:59.977Z,99963.05
2023-03-11T21:31:29.662Z,99963.37
2023-03-11T21:33:59.565Z,99959.09
2023-03-11T21:36:28.983Z,99954.98
2023-03-11T21:38:57.302Z,99954.63
2023-03-11T21:41:27.644Z,99954.81
2023-03-11T21:43:57.160Z,99956.34
2023-03-11T21:46:28.471Z,99953.77
2023-03-11T21:48:57.102Z,99950.51
2023-03-11T21:51:25.851Z,99953.25
2023-03-11T21:53:54.225Z,99953.43
2023-03-11T21:56:23.106Z,99954.45
2023-03-11T21:58:51.480Z,99955.66
2023-03-11T22:01:19.686Z,99959.94
2023-03-11T22:03:48.503Z,99959.27
2023-03-11T22:06:17.114Z,99959.27
2023-03-11T22:08:45.336Z,99962.01
2023-03-11T22:11:18.039Z,99964.41
2023-03-11T22:13:54.390Z,99970.77
2023-03-11T22:16:23.788Z,99971.79
2023-03-11T22:18:52.467Z,99975.05
2023-03-11T22:21:20.974Z,99976.94
2023-03-11T22:23:49.595Z,99974.17
2023-03-11T22:26:17.869Z,99974.53
2023-03-11T22:28:46.038Z,99967.85
2023-03-11T22:31:15.341Z,99971.62
2023-03-11T22:33:43.512Z,99970.77
2023-03-11T22:36:11.962Z,99975.05
2023-03-11T22:38:42.361Z,99980.88
2023-03-11T22:41:11.720Z,99978.98
2023-03-11T22:43:40.304Z,99977.80
2023-03-11T22:46:08.530Z,99981.22
2023-03-11T22:48:37.285Z,99980.88
2023-03-11T22:51:06.045Z,99983.63
2023-03-11T22:53:34.321Z,99982.76
2023-03-11T22:56:12.120Z,99979.85
2023-03-11T22:58:41.005Z,99983.29
2023-03-11T23:01:10.101Z,99980.19
2023-03-11T23:03:38.725Z,99982.06
2023-03-11T23:06:09.108Z,99990.81
2023-03-11T23:08:37.489Z,99988.42
2023-03-11T23:11:08.861Z,99984.48
2023-03-11T23:13:38.340Z,99977.97
2023-03-11T23:16:09.276Z,99972.98
2023-03-11T23:18:38.469Z,99976.42
2023-03-11T23:21:18.419Z,99974.55
2023-03-11T23:23:47.306Z,99979.70
2023-03-11T23:26:16.810Z,99990.00
2023-03-11T23:28:45.702Z,99990.52
2023-03-11T23:31:15.309Z,99989.67
2023-03-11T23:33:44.089Z,99981.09
2023-03-11T23:36:15.383Z,99982.98
2023-03-11T23:38:43.712Z,99976.63
2023-03-11T23:41:15.362Z,99977.81
2023-03-11T23:43:44.153Z,99981.60
2023-03-11T23:46:12.921Z,99981.93
2023-03-11T23:48:41.423Z,99981.42
2023-03-11T23:51:09.906Z,99982.28
2023-03-11T23:53:38.584Z,99987.25
2023-03-11T23:56:15.042Z,99986.06
2023-03-11T23:58:43.231Z,99988.80
